sensor_id;sensor_type;location;lat;lon;timestamp;pressure;altitude;pressure_sealevel;temperature;humidity
61113;BME280;47184;57.998;56.184;2023-03-14T00:02:10;99972.03;;;-3.66;68.09
61113;BME280;47184;57.998;56.184;2023-03-14T00:04:36;99987.16;;;-3.59;68.08
61113;BME280;47184;57.998;56.184;2023-03-14T00:07:03;99989.09;;;-3.64;68.11
61113;BME280;47184;57.998;56.184;2023-03-14T00:09:29;99970.50;;;-3.89;68.29
61113;BME280;47184;57.998;56.184;2023-03-14T00:11:56;99992.72;;;-3.68;68.44
61113;BME280;47184;57.998;56.184;2023-03-14T00:14:23;100008.34;;;-3.71;68.30
61113;BME280;47184;57.998;56.184;2023-03-14T00:16:49;99988.19;;;-3.82;68.20
61113;BME280;47184;57.998;56.184;2023-03-14T00:19:15;100007.31;;;-3.67;67.96
61113;BME280;47184;57.998;56.184;2023-03-14T00:21:42;100023.19;;;-3.76;68.04
61113;BME280;47184;57.998;56.184;2023-03-14T00:24:08;99993.66;;;-3.88;68.35
61113;BME280;47184;57.998;56.184;2023-03-14T00:26:34;100018.59;;;-3.88;67.95
61113;BME280;47184;57.998;56.184;2023-03-14T00:29:00;100018.94;;;-3.77;68.10
61113;BME280;47184;57.998;56.184;2023-03-14T00:31:26;100020.78;;;-3.79;67.52
61113;BME280;47184;57.998;56.184;2023-03-14T00:33:53;100020.91;;;-3.82;68.10
61113;BME280;47184;57.998;56.184;2023-03-14T00:36:20;100027.47;;;-3.75;67.96
61113;BME280;47184;57.998;56.184;2023-03-14T00:38:48;100014.56;;;-3.75;68.02
61113;BME280;47184;57.998;56.184;2023-03-14T00:41:20;100010.66;;;-3.84;68.03
61113;BME280;47184;57.998;56.184;2023-03-14T00:43:48;100025.56;;;-3.90;68.10
61113;BME280;47184;57.998;56.184;2023-03-14T00:46:14;100026.28;;;-3.87;68.17
61113;BME280;47184;57.998;56.184;2023-03-14T00:48:44;100041.78;;;-3.88;67.79
61113;BME280;47184;57.998;56.184;2023-03-14T00:51:12;100040.91;;;-3.87;68.20
61113;BME280;47184;57.998;56.184;2023-03-14T00:53:43;100043.34;;;-3.84;67.93
61113;BME280;47184;57.998;56.184;2023-03-14T00:56:11;100045.28;;;-3.89;68.02
61113;BME280;47184;57.998;56.184;2023-03-14T00:58:37;100043.97;;;-3.98;68.18
61113;BME280;47184;57.998;56.184;2023-03-14T01:01:16;100043.22;;;-4.00;68.26
61113;BME280;47184;57.998;56.184;2023-03-14T01:03:42;100054.06;;;-3.93;67.73
61113;BME280;47184;57.998;56.184;2023-03-14T01:08:35;100041.78;;;-4.07;67.95
61113;BME280;47184;57.998;56.184;2023-03-14T01:11:05;100057.97;;;-4.04;68.15
61113;BME280;47184;57.998;56.184;2023-03-14T01:13:32;100048.50;;;-4.03;67.95
61113;BME280;47184;57.998;56.184;2023-03-14T01:16:02;100062.97;;;-4.01;67.90
61113;BME280;47184;57.998;56.184;2023-03-14T01:18:30;100067.47;;;-4.04;68.15
61113;BME280;47184;57.998;56.184;2023-03-14T01:20:56;100061.63;;;-4.09;68.20
61113;BME280;47184;57.998;56.184;2023-03-14T01:23:22;100055.78;;;-4.13;68.19
61113;BME280;47184;57.998;56.184;2023-03-14T01:25:48;100067.59;;;-4.07;68.44
61113;BME280;47184;57.998;56.184;2023-03-14T01:28:15;100073.00;;;-4.13;68.52
61113;BME280;47184;57.998;56.184;2023-03-14T01:30:41;100081.97;;;-4.22;68.53
61113;BME280;47184;57.998;56.184;2023-03-14T01:33:07;100077.59;;;-4.20;68.48
61113;BME280;47184;57.998;56.184;2023-03-14T01:35:33;100054.84;;;-4.31;68.63
61113;BME280;47184;57.998;56.184;2023-03-14T01:38:00;100075.72;;;-4.16;68.38
61113;BME280;47184;57.998;56.184;2023-03-14T01:40:26;100058.97;;;-4.27;68.08
61113;BME280;47184;57.998;56.184;2023-03-14T01:42:56;100080.22;;;-4.21;68.21
61113;BME280;47184;57.998;56.184;2023-03-14T01:48:28;100092.06;;;-4.17;68.45
61113;BME280;47184;57.998;56.184;2023-03-14T01:50:58;100100.53;;;-4.34;68.59
61113;BME280;47184;57.998;56.184;2023-03-14T01:53:25;100095.25;;;-4.31;68.82
61113;BME280;47184;57.998;56.184;2023-03-14T01:55:52;100108.88;;;-4.29;68.76
61113;BME280;47184;57.998;56.184;2023-03-14T01:58:19;100108.13;;;-4.31;68.21
61113;BME280;47184;57.998;56.184;2023-03-14T02:00:46;100085.19;;;-4.37;68.62
61113;BME280;47184;57.998;56.184;2023-03-14T02:03:16;100100.84;;;-4.42;68.93
61113;BME280;47184;57.998;56.184;2023-03-14T02:05:44;100090.84;;;-4.50;69.44
61113;BME280;47184;57.998;56.184;2023-03-14T02:08:19;100093.59;;;-4.54;69.11
61113;BME280;47184;57.998;56.184;2023-03-14T02:10:50;100102.84;;;-4.49;69.50
61113;BME280;47184;57.998;56.184;2023-03-14T02:13:23;100108.00;;;-4.49;69.58
61113;BME280;47184;57.998;56.184;2023-03-14T02:16:10;100097.09;;;-4.55;69.57
61113;BME280;47184;57.998;56.184;2023-03-14T02:18:51;100094.72;;;-4.60;69.57
61113;BME280;47184;57.998;56.184;2023-03-14T02:22:02;100097.72;;;-4.70;69.45
61113;BME280;47184;57.998;56.184;2023-03-14T02:27:18;100073.47;;;-4.65;69.51
61113;BME280;47184;57.998;56.184;2023-03-14T02:29:51;100102.84;;;-4.49;69.44
61113;BME280;47184;57.998;56.184;2023-03-14T02:32:19;100109.03;;;-4.53;69.40
61113;BME280;47184;57.998;56.184;2023-03-14T02:34:49;100086.34;;;-4.65;69.58
61113;BME280;47184;57.998;56.184;2023-03-14T02:37:17;100099.56;;;-4.52;69.44
61113;BME280;47184;57.998;56.184;2023-03-14T02:39:45;100106.31;;;-4.50;69.20
61113;BME280;47184;57.998;56.184;2023-03-14T02:42:13;100108.34;;;-4.58;69.48
61113;BME280;47184;57.998;56.184;2023-03-14T02:44:54;100101.78;;;-4.65;69.62
61113;BME280;47184;57.998;56.184;2023-03-14T02:47:27;100097.78;;;-4.72;69.58
61113;BME280;47184;57.998;56.184;2023-03-14T02:49:58;100080.78;;;-4.76;69.44
61113;BME280;47184;57.998;56.184;2023-03-14T02:52:26;100119.69;;;-4.62;69.70
61113;BME280;47184;57.998;56.184;2023-03-14T02:54:52;100124.84;;;-4.62;69.70
61113;BME280;47184;57.998;56.184;2023-03-14T02:57:18;100128.09;;;-4.57;69.66
61113;BME280;47184;57.998;56.184;2023-03-14T02:59:44;100123.47;;;-4.49;69.63
61113;BME280;47184;57.998;56.184;2023-03-14T03:02:15;100089.09;;;-4.69;69.47
61113;BME280;47184;57.998;56.184;2023-03-14T03:04:41;100134.28;;;-4.40;69.45
61113;BME280;47184;57.998;56.184;2023-03-14T03:07:08;100091.53;;;-4.66;69.25
61113;BME280;47184;57.998;56.184;2023-03-14T03:09:34;100112.66;;;-4.58;69.60
61113;BME280;47184;57.998;56.184;2023-03-14T03:12:00;100134.06;;;-4.56;69.63
61113;BME280;47184;57.998;56.184;2023-03-14T03:14:28;100122.25;;;-4.62;69.90
61113;BME280;47184;57.998;56.184;2023-03-14T03:16:58;100143.41;;;-4.54;69.87
61113;BME280;47184;57.998;56.184;2023-03-14T03:19:24;100106.47;;;-4.75;70.15
61113;BME280;47184;57.998;56.184;2023-03-14T03:21:50;100135.81;;;-4.79;70.24
61113;BME280;47184;57.998;56.184;2023-03-14T03:24:16;100137.88;;;-4.65;70.17
61113;BME280;47184;57.998;56.184;2023-03-14T03:26:43;100149.28;;;-4.50;69.89
61113;BME280;47184;57.998;56.184;2023-03-14T03:29:10;100141.09;;;-4.60;70.16
61113;BME280;47184;57.998;56.184;2023-03-14T03:31:37;100156.16;;;-4.51;69.99
61113;BME280;47184;57.998;56.184;2023-03-14T03:34:04;100155.41;;;-4.53;69.93
61113;BME280;47184;57.998;56.184;2023-03-14T03:36:30;100160.50;;;-4.51;70.00
61113;BME280;47184;57.998;56.184;2023-03-14T03:38:58;100163.06;;;-4.51;70.01
61113;BME280;47184;57.998;56.184;2023-03-14T03:41:24;100162.75;;;-4.43;70.06
61113;BME280;47184;57.998;56.184;2023-03-14T03:43:53;100125.81;;;-4.64;69.95
61113;BME280;47184;57.998;56.184;2023-03-14T03:46:20;100171.97;;;-4.38;69.66
61113;BME280;47184;57.998;56.184;2023-03-14T03:48:47;100177.81;;;-4.33;69.52
61113;BME280;47184;57.998;56.184;2023-03-14T03:51:14;100151.00;;;-4.51;69.74
61113;BME280;47184;57.998;56.184;2023-03-14T03:53:41;100193.84;;;-4.26;69.45
61113;BME280;47184;57.998;56.184;2023-03-14T03:56:11;100200.88;;;-4.09;69.33
61113;BME280;47184;57.998;56.184;2023-03-14T03:58:38;100189.47;;;-4.24;69.33
61113;BME280;47184;57.998;56.184;2023-03-14T04:01:06;100202.63;;;-4.10;69.20
61113;BME280;47184;57.998;56.184;2023-03-14T04:03:33;100210.56;;;-4.14;69.52
61113;BME280;47184;57.998;56.184;2023-03-14T04:06:04;100206.09;;;-4.11;69.31
61113;BME280;47184;57.998;56.184;2023-03-14T04:08:32;100213.06;;;-4.13;69.36
61113;BME280;47184;57.998;56.184;2023-03-14T04:11:01;100215.50;;;-4.10;69.14
61113;BME280;47184;57.998;56.184;2023-03-14T04:13:50;100204.25;;;-4.07;69.12
61113;BME280;47184;57.998;56.184;2023-03-14T04:16:19;100231.78;;;-3.87;68.74
61113;BME280;47184;57.998;56.184;2023-03-14T04:18:47;100226.63;;;-3.87;68.61
61113;BME280;47184;57.998;56.184;2023-03-14T04:21:14;100200.38;;;-3.97;68.66
61113;BME280;47184;57.998;56.184;2023-03-14T04:23:46;100238.63;;;-3.66;68.10
61113;BME280;47184;57.998;56.184;2023-03-14T04:26:14;100234.56;;;-3.71;68.16
61113;BME280;47184;57.998;56.184;2023-03-14T04:28:40;100215.94;;;-3.78;68.03
61113;BME280;47184;57.998;56.184;2023-03-14T04:31:13;100218.59;;;-3.80;68.24
61113;BME280;47184;57.998;56.184;2023-03-14T04:33:40;100247.59;;;-3.54;67.82
61113;BME280;47184;57.998;56.184;2023-03-14T04:36:08;100247.84;;;-3.60;67.60
61113;BME280;47184;57.998;56.184;2023-03-14T04:38:35;100239.34;;;-3.62;67.45
61113;BME280;47184;57.998;56.184;2023-03-14T04:41:02;100265.53;;;-3.51;67.42
61113;BME280;47184;57.998;56.184;2023-03-14T04:43:31;100249.19;;;-3.52;67.25
61113;BME280;47184;57.998;56.184;2023-03-14T04:49:27;100250.56;;;-3.43;66.66
61113;BME280;47184;57.998;56.184;2023-03-14T04:51:53;100251.41;;;-3.42;66.46
61113;BME280;47184;57.998;56.184;2023-03-14T04:54:21;100279.97;;;-3.27;66.41
61113;BME280;47184;57.998;56.184;2023-03-14T04:56:52;100254.28;;;-3.30;66.23
61113;BME280;47184;57.998;56.184;2023-03-14T04:59:18;100266.06;;;-3.43;65.86
61113;BME280;47184;57.998;56.184;2023-03-14T05:01:44;100298.22;;;-3.31;65.96
61113;BME280;47184;57.998;56.184;2023-03-14T05:04:40;100292.69;;;-3.22;65.76
61113;BME280;47184;57.998;56.184;2023-03-14T05:07:33;100306.75;;;-3.09;65.80
61113;BME280;47184;57.998;56.184;2023-03-14T05:10:10;100304.13;;;-2.88;65.75
61113;BME280;47184;57.998;56.184;2023-03-14T05:12:44;100306.81;;;-2.52;65.97
61113;BME280;47184;57.998;56.184;2023-03-14T05:15:27;100305.44;;;-2.23;65.04
61113;BME280;47184;57.998;56.184;2023-03-14T05:18:22;100318.97;;;-1.99;64.34
61113;BME280;47184;57.998;56.184;2023-03-14T05:21:13;100323.19;;;-1.62;64.14
61113;BME280;47184;57.998;56.184;2023-03-14T05:24:07;100324.19;;;-1.64;62.32
61113;BME280;47184;57.998;56.184;2023-03-14T05:27:12;100327.84;;;-1.51;61.90
61113;BME280;47184;57.998;56.184;2023-03-14T05:29:40;100321.38;;;-1.42;61.63
61113;BME280;47184;57.998;56.184;2023-03-14T05:32:32;100286.34;;;-1.67;60.95
61113;BME280;47184;57.998;56.184;2023-03-14T05:35:19;100331.00;;;-1.11;60.13
61113;BME280;47184;57.998;56.184;2023-03-14T05:37:55;100329.06;;;-0.41;59.51
61113;BME280;47184;57.998;56.184;2023-03-14T05:40:21;100331.63;;;0.22;57.91
61113;BME280;47184;57.998;56.184;2023-03-14T05:42:59;100333.06;;;0.58;56.17
61113;BME280;47184;57.998;56.184;2023-03-14T05:45:49;100339.88;;;0.74;54.83
61113;BME280;47184;57.998;56.184;2023-03-14T05:48:35;100337.19;;;1.62;53.34
61113;BME280;47184;57.998;56.184;2023-03-14T05:51:11;100319.16;;;2.00;52.36
61113;BME280;47184;57.998;56.184;2023-03-14T05:53:51;100328.84;;;2.90;51.52
61113;BME280;47184;57.998;56.184;2023-03-14T05:56:44;100335.97;;;3.27;48.74
61113;BME280;47184;57.998;56.184;2023-03-14T05:59:10;100345.00;;;3.34;48.65
61113;BME280;47184;57.998;56.184;2023-03-14T06:02:02;100348.06;;;3.28;48.56
61113;BME280;47184;57.998;56.184;2023-03-14T06:04:36;100348.69;;;3.81;47.10
61113;BME280;47184;57.998;56.184;2023-03-14T06:07:03;100359.84;;;4.43;46.54
61113;BME280;47184;57.998;56.184;2023-03-14T06:09:30;100361.75;;;4.17;45.63
61113;BME280;47184;57.998;56.184;2023-03-14T06:11:59;100361.00;;;4.15;46.53
61113;BME280;47184;57.998;56.184;2023-03-14T06:14:26;100358.88;;;4.44;46.76
61113;BME280;47184;57.998;56.184;2023-03-14T06:16:52;100382.06;;;5.19;46.96
61113;BME280;47184;57.998;56.184;2023-03-14T06:19:20;100367.88;;;5.00;46.13
61113;BME280;47184;57.998;56.184;2023-03-14T06:21:56;100367.56;;;4.80;45.82
61113;BME280;47184;57.998;56.184;2023-03-14T06:24:24;100369.22;;;5.28;45.92
61113;BME280;47184;57.998;56.184;2023-03-14T06:26:51;100367.06;;;5.33;45.34
61113;BME280;47184;57.998;56.184;2023-03-14T06:29:18;100337.38;;;6.00;45.77
61113;BME280;47184;57.998;56.184;2023-03-14T06:31:46;100370.03;;;6.07;44.15
61113;BME280;47184;57.998;56.184;2023-03-14T06:34:16;100366.00;;;5.58;43.49
61113;BME280;47184;57.998;56.184;2023-03-14T06:36:42;100361.09;;;5.87;43.99
61113;BME280;47184;57.998;56.184;2023-03-14T06:39:09;100367.34;;;6.29;43.71
61113;BME280;47184;57.998;56.184;2023-03-14T06:41:39;100354.47;;;7.00;43.62
61113;BME280;47184;57.998;56.184;2023-03-14T06:44:07;100354.63;;;6.99;42.33
61113;BME280;47184;57.998;56.184;2023-03-14T06:46:33;100341.38;;;7.61;42.37
61113;BME280;47184;57.998;56.184;2023-03-14T06:49:00;100381.13;;;7.16;43.18
61113;BME280;47184;57.998;56.184;2023-03-14T06:51:26;100381.06;;;7.07;43.12
61113;BME280;47184;57.998;56.184;2023-03-14T06:53:54;100372.63;;;7.34;42.78
61113;BME280;47184;57.998;56.184;2023-03-14T06:56:22;100389.31;;;7.84;43.39
61113;BME280;47184;57.998;56.184;2023-03-14T06:58:49;100379.53;;;7.04;43.88
61113;BME280;47184;57.998;56.184;2023-03-14T07:01:33;100371.13;;;6.89;44.38
61113;BME280;47184;57.998;56.184;2023-03-14T07:04:06;100381.63;;;7.62;42.77
61113;BME280;47184;57.998;56.184;2023-03-14T07:06:34;100386.84;;;8.42;41.87
61113;BME280;47184;57.998;56.184;2023-03-14T07:09:00;100381.31;;;8.46;41.48
61113;BME280;47184;57.998;56.184;2023-03-14T07:11:26;100398.16;;;8.33;40.50
61113;BME280;47184;57.998;56.184;2023-03-14T07:13:52;100391.97;;;8.63;40.68
61113;BME280;47184;57.998;56.184;2023-03-14T07:16:20;100395.09;;;9.15;40.40
61113;BME280;47184;57.998;56.184;2023-03-14T07:18:46;100392.06;;;9.57;39.55
61113;BME280;47184;57.998;56.184;2023-03-14T07:21:12;100400.31;;;9.45;39.74
61113;BME280;47184;57.998;56.184;2023-03-14T07:23:40;100401.50;;;9.60;38.32
61113;BME280;47184;57.998;56.184;2023-03-14T07:26:07;100392.66;;;9.41;38.55
61113;BME280;47184;57.998;56.184;2023-03-14T07:28:44;100402.19;;;9.15;38.19
61113;BME280;47184;57.998;56.184;2023-03-14T07:31:14;100401.22;;;9.06;38.52
61113;BME280;47184;57.998;56.184;2023-03-14T07:33:40;100409.22;;;9.71;38.51
61113;BME280;47184;57.998;56.184;2023-03-14T07:36:07;100389.97;;;10.16;37.43
61113;BME280;47184;57.998;56.184;2023-03-14T07:38:34;100389.38;;;10.50;36.13
61113;BME280;47184;57.998;56.184;2023-03-14T07:41:09;100374.94;;;10.80;33.37
61113;BME280;47184;57.998;56.184;2023-03-14T07:43:41;100400.88;;;11.28;33.50
61113;BME280;47184;57.998;56.184;2023-03-14T07:46:07;100411.25;;;10.78;32.20
61113;BME280;47184;57.998;56.184;2023-03-14T07:48:34;100410.94;;;10.99;32.79
61113;BME280;47184;57.998;56.184;2023-03-14T07:51:00;100383.50;;;11.52;32.83
61113;BME280;47184;57.998;56.184;2023-03-14T07:53:26;100391.56;;;10.54;32.52
61113;BME280;47184;57.998;56.184;2023-03-14T07:55:53;100386.63;;;10.77;32.62
61113;BME280;47184;57.998;56.184;2023-03-14T07:58:21;100394.53;;;11.39;31.63
61113;BME280;47184;57.998;56.184;2023-03-14T08:00:48;100381.44;;;10.50;30.67
61113;BME280;47184;57.998;56.184;2023-03-14T08:03:14;100405.22;;;10.50;30.50
61113;BME280;47184;57.998;56.184;2023-03-14T08:05:41;100408.81;;;11.02;30.05
61113;BME280;47184;57.998;56.184;2023-03-14T08:08:08;100408.84;;;9.09;31.48
61113;BME280;47184;57.998;56.184;2023-03-14T08:10:39;100423.81;;;9.09;32.55
61113;BME280;47184;57.998;56.184;2023-03-14T08:13:05;100398.88;;;9.87;32.07
61113;BME280;47184;57.998;56.184;2023-03-14T08:15:33;100420.66;;;10.80;31.77
61113;BME280;47184;57.998;56.184;2023-03-14T08:17:59;100427.94;;;10.78;30.38
61113;BME280;47184;57.998;56.184;2023-03-14T08:20:27;100425.88;;;10.54;29.49
61113;BME280;47184;57.998;56.184;2023-03-14T08:22:57;100430.00;;;10.11;28.97
61113;BME280;47184;57.998;56.184;2023-03-14T08:25:25;100412.25;;;10.04;29.35
61113;BME280;47184;57.998;56.184;2023-03-14T08:27:51;100410.28;;;9.41;29.10
61113;BME280;47184;57.998;56.184;2023-03-14T08:30:18;100435.75;;;8.74;29.75
61113;BME280;47184;57.998;56.184;2023-03-14T08:32:45;100441.75;;;10.27;29.00
61113;BME280;47184;57.998;56.184;2023-03-14T08:35:15;100429.91;;;11.20;27.40
61113;BME280;47184;57.998;56.184;2023-03-14T08:37:41;100434.63;;;11.86;27.46
61113;BME280;47184;57.998;56.184;2023-03-14T08:40:11;100424.03;;;11.34;26.78
61113;BME280;47184;57.998;56.184;2023-03-14T08:42:40;100436.06;;;10.22;27.01
61113;BME280;47184;57.998;56.184;2023-03-14T08:45:07;100425.53;;;10.12;28.09
61113;BME280;47184;57.998;56.184;2023-03-14T08:47:33;100439.03;;;10.36;27.64
61113;BME280;47184;57.998;56.184;2023-03-14T08:49:59;100446.94;;;9.25;28.82
61113;BME280;47184;57.998;56.184;2023-03-14T08:52:26;100435.16;;;9.09;29.00
61113;BME280;47184;57.998;56.184;2023-03-14T08:54:52;100432.84;;;8.87;29.11
61113;BME280;47184;57.998;56.184;2023-03-14T08:57:18;100429.22;;;8.68;28.91
61113;BME280;47184;57.998;56.184;2023-03-14T08:59:44;100445.94;;;7.88;29.73
61113;BME280;47184;57.998;56.184;2023-03-14T09:02:11;100447.94;;;7.03;30.21
61113;BME280;47184;57.998;56.184;2023-03-14T09:04:37;100444.72;;;6.67;31.18
61113;BME280;47184;57.998;56.184;2023-03-14T09:07:03;100446.72;;;7.28;30.71
61113;BME280;47184;57.998;56.184;2023-03-14T09:09:30;100450.78;;;6.35;31.14
61113;BME280;47184;57.998;56.184;2023-03-14T09:11:57;100465.66;;;5.56;31.97
61113;BME280;47184;57.998;56.184;2023-03-14T09:14:23;100448.75;;;6.71;32.40
61113;BME280;47184;57.998;56.184;2023-03-14T09:16:49;100446.34;;;6.79;30.87
61113;BME280;47184;57.998;56.184;2023-03-14T09:19:16;100458.84;;;6.43;31.21
61113;BME280;47184;57.998;56.184;2023-03-14T09:21:42;100432.28;;;6.69;31.60
61113;BME280;47184;57.998;56.184;2023-03-14T09:24:09;100456.94;;;9.02;30.16
61113;BME280;47184;57.998;56.184;2023-03-14T09:26:35;100442.94;;;10.78;28.98
61113;BME280;47184;57.998;56.184;2023-03-14T09:29:02;100456.72;;;9.99;27.89
61113;BME280;47184;57.998;56.184;2023-03-14T09:31:28;100470.19;;;9.58;28.62
61113;BME280;47184;57.998;56.184;2023-03-14T09:33:55;100475.78;;;9.83;27.87
61113;BME280;47184;57.998;56.184;2023-03-14T09:36:21;100459.44;;;10.98;27.02
61113;BME280;47184;57.998;56.184;2023-03-14T09:38:48;100471.41;;;11.98;26.19
61113;BME280;47184;57.998;56.184;2023-03-14T09:41:21;100454.00;;;11.35;26.04
61113;BME280;47184;57.998;56.184;2023-03-14T09:44:03;100466.16;;;9.64;26.55
61113;BME280;47184;57.998;56.184;2023-03-14T09:46:31;100472.63;;;9.03;28.18
61113;BME280;47184;57.998;56.184;2023-03-14T09:48:59;100474.28;;;8.25;28.67
61113;BME280;47184;57.998;56.184;2023-03-14T09:51:25;100446.13;;;7.24;29.38
61113;BME280;47184;57.998;56.184;2023-03-14T09:53:51;100481.16;;;6.49;30.52
61113;BME280;47184;57.998;56.184;2023-03-14T09:56:19;100490.03;;;5.92;31.25
61113;BME280;47184;57.998;56.184;2023-03-14T09:58:50;100487.53;;;6.02;32.10
61113;BME280;47184;57.998;56.184;2023-03-14T10:01:22;100496.75;;;5.83;31.76
61113;BME280;47184;57.998;56.184;2023-03-14T10:03:50;100493.00;;;5.41;31.91
61113;BME280;47184;57.998;56.184;2023-03-14T10:06:19;100494.50;;;5.21;32.59
61113;BME280;47184;57.998;56.184;2023-03-14T10:08:47;100471.75;;;5.10;33.18
61113;BME280;47184;57.998;56.184;2023-03-14T10:11:16;100468.63;;;5.05;32.92
61113;BME280;47184;57.998;56.184;2023-03-14T10:14:03;100500.09;;;4.92;32.42
61113;BME280;47184;57.998;56.184;2023-03-14T10:16:32;100497.09;;;4.25;33.70
61113;BME280;47184;57.998;56.184;2023-03-14T10:19:12;100498.88;;;4.25;33.10
61113;BME280;47184;57.998;56.184;2023-03-14T10:26:54;100515.75;;;3.95;34.01
61113;BME280;47184;57.998;56.184;2023-03-14T10:29:20;100517.81;;;4.03;34.40
61113;BME280;47184;57.998;56.184;2023-03-14T10:34:21;100516.88;;;4.29;34.72
61113;BME280;47184;57.998;56.184;2023-03-14T10:36:52;100511.72;;;5.12;33.92
61113;BME280;47184;57.998;56.184;2023-03-14T10:39:28;100518.50;;;5.97;33.32
61113;BME280;47184;57.998;56.184;2023-03-14T10:44:54;100513.06;;;10.90;29.89
61113;BME280;47184;57.998;56.184;2023-03-14T10:47:23;100517.50;;;11.25;26.72
61113;BME280;47184;57.998;56.184;2023-03-14T10:49:50;100516.91;;;10.78;25.36
61113;BME280;47184;57.998;56.184;2023-03-14T10:52:27;100515.41;;;9.73;25.43
61113;BME280;47184;57.998;56.184;2023-03-14T10:54:57;100530.38;;;9.73;26.22
61113;BME280;47184;57.998;56.184;2023-03-14T10:57:24;100536.88;;;8.62;26.92
61113;BME280;47184;57.998;56.184;2023-03-14T10:59:50;100545.28;;;7.43;28.28
61113;BME280;47184;57.998;56.184;2023-03-14T11:02:49;100534.41;;;6.61;29.59
61113;BME280;47184;57.998;56.184;2023-03-14T11:08:02;100536.81;;;7.81;28.49
61113;BME280;47184;57.998;56.184;2023-03-14T11:16:06;100545.28;;;7.11;30.27
61113;BME280;47184;57.998;56.184;2023-03-14T11:19:27;100536.69;;;8.13;29.49
61113;BME280;47184;57.998;56.184;2023-03-14T11:25:14;100540.16;;;10.47;26.08
61113;BME280;47184;57.998;56.184;2023-03-14T11:28:18;100555.41;;;10.53;25.61
61113;BME280;47184;57.998;56.184;2023-03-14T11:36:06;100573.81;;;10.35;23.40
61113;BME280;47184;57.998;56.184;2023-03-14T11:38:38;100527.19;;;9.69;23.96
61113;BME280;47184;57.998;56.184;2023-03-14T11:41:11;100561.06;;;10.30;24.14
61113;BME280;47184;57.998;56.184;2023-03-14T11:43:40;100566.63;;;9.03;24.25
61113;BME280;47184;57.998;56.184;2023-03-14T11:51:24;100557.78;;;5.50;27.67
61113;BME280;47184;57.998;56.184;2023-03-14T11:54:15;100574.72;;;5.57;28.23
61113;BME280;47184;57.998;56.184;2023-03-14T11:56:51;100577.84;;;6.31;28.31
61113;BME280;47184;57.998;56.184;2023-03-14T11:59:39;100590.75;;;6.34;28.46
61113;BME280;47184;57.998;56.184;2023-03-14T12:10:23;100591.47;;;7.13;28.34
61113;BME280;47184;57.998;56.184;2023-03-14T12:12:49;100594.22;;;7.44;28.14
61113;BME280;47184;57.998;56.184;2023-03-14T12:15:21;100592.66;;;6.66;28.26
61113;BME280;47184;57.998;56.184;2023-03-14T12:17:54;100595.78;;;5.91;29.74
61113;BME280;47184;57.998;56.184;2023-03-14T12:20:25;100586.44;;;6.11;29.46
61113;BME280;47184;57.998;56.184;2023-03-14T12:22:57;100597.53;;;6.48;30.01
61113;BME280;47184;57.998;56.184;2023-03-14T12:25:32;100602.41;;;6.64;29.62
61113;BME280;47184;57.998;56.184;2023-03-14T12:30:33;100597.59;;;6.91;29.21
61113;BME280;47184;57.998;56.184;2023-03-14T12:35:53;100606.44;;;8.59;28.61
61113;BME280;47184;57.998;56.184;2023-03-14T12:38:43;100601.38;;;8.87;28.27
61113;BME280;47184;57.998;56.184;2023-03-14T12:41:27;100599.91;;;9.13;27.21
61113;BME280;47184;57.998;56.184;2023-03-14T12:43:55;100606.16;;;9.22;27.68
61113;BME280;47184;57.998;56.184;2023-03-14T12:46:24;100607.31;;;8.70;27.73
61113;BME280;47184;57.998;56.184;2023-03-14T12:49:03;100599.44;;;7.97;27.63
61113;BME280;47184;57.998;56.184;2023-03-14T12:51:42;100609.88;;;7.87;27.68
61113;BME280;47184;57.998;56.184;2023-03-14T12:59:58;100613.38;;;7.88;27.96
61113;BME280;47184;57.998;56.184;2023-03-14T13:02:28;100605.41;;;7.78;27.96
61113;BME280;47184;57.998;56.184;2023-03-14T13:05:12;100607.25;;;7.66;27.79
61113;BME280;47184;57.998;56.184;2023-03-14T13:10:23;100595.47;;;7.82;27.87
61113;BME280;47184;57.998;56.184;2023-03-14T13:13:11;100625.81;;;7.86;28.11
61113;BME280;47184;57.998;56.184;2023-03-14T13:15:43;100627.25;;;7.58;28.48
61113;BME280;47184;57.998;56.184;2023-03-14T13:18:28;100628.28;;;7.34;29.01
61113;BME280;47184;57.998;56.184;2023-03-14T13:20:59;100626.53;;;6.58;29.50
61113;BME280;47184;57.998;56.184;2023-03-14T13:23:33;100627.59;;;6.33;30.36
61113;BME280;47184;57.998;56.184;2023-03-14T13:26:00;100644.59;;;6.16;30.41
61113;BME280;47184;57.998;56.184;2023-03-14T13:28:29;100629.22;;;5.87;30.81
61113;BME280;47184;57.998;56.184;2023-03-14T13:31:00;100638.78;;;5.29;30.93
61113;BME280;47184;57.998;56.184;2023-03-14T13:33:27;100649.00;;;4.71;31.77
61113;BME280;47184;57.998;56.184;2023-03-14T13:36:02;100647.66;;;4.15;32.99
61113;BME280;47184;57.998;56.184;2023-03-14T13:38:31;100621.53;;;3.62;33.43
61113;BME280;47184;57.998;56.184;2023-03-14T13:40:59;100627.19;;;3.29;33.98
61113;BME280;47184;57.998;56.184;2023-03-14T13:43:40;100648.44;;;3.10;34.64
61113;BME280;47184;57.998;56.184;2023-03-14T13:46:22;100617.44;;;2.77;34.74
61113;BME280;47184;57.998;56.184;2023-03-14T13:49:10;100643.72;;;2.74;35.13
61113;BME280;47184;57.998;56.184;2023-03-14T13:51:50;100658.53;;;2.59;35.16
61113;BME280;47184;57.998;56.184;2023-03-14T13:54:21;100657.88;;;2.27;35.76
61113;BME280;47184;57.998;56.184;2023-03-14T13:56:48;100657.53;;;2.03;36.19
61113;BME280;47184;57.998;56.184;2023-03-14T13:59:29;100662.47;;;1.93;36.69
61113;BME280;47184;57.998;56.184;2023-03-14T14:01:58;100636.88;;;1.56;36.95
61113;BME280;47184;57.998;56.184;2023-03-14T14:04:26;100659.38;;;1.57;37.46
61113;BME280;47184;57.998;56.184;2023-03-14T14:06:57;100667.28;;;1.55;37.58
61113;BME280;47184;57.998;56.184;2023-03-14T14:09:29;100666.22;;;1.28;38.18
61113;BME280;47184;57.998;56.184;2023-03-14T14:12:28;100665.13;;;1.00;39.14